sensor_id;sensor_type;location;lat;lon;timestamp;pressure;altitude;pressure_sealevel;temperature;humidity
7309;BME280;3695;53.330;9.876;2022-08-23T00:02:00;129039.69;;;19.98;100.00
7309;BME280;3695;53.330;9.876;2022-08-23T00:04:30;129079.72;;;20.02;100.00
7309;BME280;3695;53.330;9.876;2022-08-23T00:06:58;128847.00;;;19.89;100.00
7309;BME280;3695;53.330;9.876;2022-08-23T00:09:25;129226.72;;;20.02;100.00
7309;BME280;3695;53.330;9.876;2022-08-23T00:11:54;129485.44;;;20.12;100.00
7309;BME280;3695;53.330;9.876;2022-08-23T00:14:31;129273.88;;;20.02;100.00
7309;BME280;3695;53.330;9.876;2022-08-23T00:16:59;129716.34;;;20.11;100.00
7309;BME280;3695;53.330;9.876;2022-08-23T00:19:26;129593.03;;;20.06;100.00
7309;BME280;3695;53.330;9.876;2022-08-23T00:21:54;129632.94;;;20.07;100.00
7309;BME280;3695;53.330;9.876;2022-08-23T00:24:22;129844.19;;;20.08;100.00
7309;BME280;3695;53.330;9.876;2022-08-23T00:26:57;130071.03;;;20.16;100.00
7309;BME280;3695;53.330;9.876;2022-08-23T00:29:28;129708.91;;;20.07;100.00
7309;BME280;3695;53.330;9.876;2022-08-23T00:31:54;129560.88;;;20.00;100.00
7309;BME280;3695;53.330;9.876;2022-08-23T00:34:23;129100.19;;;19.86;100.00
7309;BME280;3695;53.330;9.876;2022-08-23T00:36:50;129345.66;;;19.94;100.00
7309;BME280;3695;53.330;9.876;2022-08-23T00:39:17;129772.50;;;20.03;100.00
7309;BME280;3695;53.330;9.876;2022-08-23T00:41:46;129268.91;;;19.91;100.00
7309;BME280;3695;53.330;9.876;2022-08-23T00:44:18;128940.81;;;19.77;100.00
7309;BME280;3695;53.330;9.876;2022-08-23T00:47:03;128846.41;;;19.73;100.00
7309;BME280;3695;53.330;9.876;2022-08-23T00:49:53;128703.59;;;19.71;100.00
7309;BME280;3695;53.330;9.876;2022-08-23T00:52:26;128384.63;;;19.63;100.00
7309;BME280;3695;53.330;9.876;2022-08-23T00:54:55;128621.09;;;19.70;100.00
7309;BME280;3695;53.330;9.876;2022-08-23T00:57:22;128994.28;;;19.80;100.00
7309;BME280;3695;53.330;9.876;2022-08-23T00:59:49;129335.69;;;19.88;100.00
7309;BME280;3695;53.330;9.876;2022-08-23T01:02:16;128823.59;;;19.74;100.00
7309;BME280;3695;53.330;9.876;2022-08-23T01:04:46;128938.03;;;19.77;100.00
7309;BME280;3695;53.330;9.876;2022-08-23T01:07:22;128571.75;;;19.65;100.00
7309;BME280;3695;53.330;9.876;2022-08-23T01:09:55;128577.69;;;19.66;100.00
7309;BME280;3695;53.330;9.876;2022-08-23T01:12:29;128447.59;;;19.60;100.00
7309;BME280;3695;53.330;9.876;2022-08-23T01:15:00;128837.03;;;19.72;100.00
7309;BME280;3695;53.330;9.876;2022-08-23T01:17:34;128560.66;;;19.65;100.00
7309;BME280;3695;53.330;9.876;2022-08-23T01:20:06;127999.06;;;19.46;100.00
7309;BME280;3695;53.330;9.876;2022-08-23T01:22:37;128558.28;;;19.66;100.00
7309;BME280;3695;53.330;9.876;2022-08-23T01:25:12;128701.75;;;19.67;100.00
7309;BME280;3695;53.330;9.876;2022-08-23T01:27:39;128471.22;;;19.62;100.00
7309;BME280;3695;53.330;9.876;2022-08-23T01:30:09;128158.53;;;19.53;100.00
7309;BME280;3695;53.330;9.876;2022-08-23T01:32:40;127994.47;;;19.43;100.00
7309;BME280;3695;53.330;9.876;2022-08-23T01:35:09;128475.69;;;19.61;100.00
7309;BME280;3695;53.330;9.876;2022-08-23T01:37:36;128312.38;;;19.55;100.00
7309;BME280;3695;53.330;9.876;2022-08-23T01:40:03;128564.09;;;19.64;100.00
7309;BME280;3695;53.330;9.876;2022-08-23T01:42:31;129064.09;;;19.75;100.00
7309;BME280;3695;53.330;9.876;2022-08-23T01:44:58;128909.38;;;19.70;100.00
7309;BME280;3695;53.330;9.876;2022-08-23T01:47:26;128679.06;;;19.62;100.00
7309;BME280;3695;53.330;9.876;2022-08-23T01:49:52;128167.38;;;19.47;100.00
7309;BME280;3695;53.330;9.876;2022-08-23T01:52:18;128037.75;;;19.42;100.00
7309;BME280;3695;53.330;9.876;2022-08-23T01:54:45;128372.00;;;19.57;100.00
7309;BME280;3695;53.330;9.876;2022-08-23T01:57:11;127712.13;;;19.36;100.00
7309;BME280;3695;53.330;9.876;2022-08-23T01:59:41;128175.69;;;19.47;100.00
7309;BME280;3695;53.330;9.876;2022-08-23T02:02:08;128545.13;;;19.55;100.00
7309;BME280;3695;53.330;9.876;2022-08-23T02:04:34;128205.50;;;19.48;100.00
7309;BME280;3695;53.330;9.876;2022-08-23T02:07:01;128059.53;;;19.41;100.00
7309;BME280;3695;53.330;9.876;2022-08-23T02:09:27;128058.88;;;19.42;100.00
7309;BME280;3695;53.330;9.876;2022-08-23T02:11:54;128239.41;;;19.47;100.00
7309;BME280;3695;53.330;9.876;2022-08-23T02:14:20;128060.59;;;19.41;100.00
7309;BME280;3695;53.330;9.876;2022-08-23T02:16:51;128281.63;;;19.46;100.00
7309;BME280;3695;53.330;9.876;2022-08-23T02:19:18;127473.06;;;19.21;100.00
7309;BME280;3695;53.330;9.876;2022-08-23T02:21:45;127222.13;;;19.17;100.00
7309;BME280;3695;53.330;9.876;2022-08-23T02:24:13;127598.16;;;19.31;100.00
7309;BME280;3695;53.330;9.876;2022-08-23T02:26:43;128030.09;;;19.41;100.00
7309;BME280;3695;53.330;9.876;2022-08-23T02:29:10;128102.13;;;19.41;100.00
7309;BME280;3695;53.330;9.876;2022-08-23T02:31:37;127837.06;;;19.34;100.00
7309;BME280;3695;53.330;9.876;2022-08-23T02:34:05;127540.25;;;19.24;100.00
7309;BME280;3695;53.330;9.876;2022-08-23T02:36:32;127432.94;;;19.23;100.00
7309;BME280;3695;53.330;9.876;2022-08-23T02:38:59;127186.09;;;19.13;100.00
7309;BME280;3695;53.330;9.876;2022-08-23T02:41:25;127360.91;;;19.19;100.00
7309;BME280;3695;53.330;9.876;2022-08-23T02:43:52;127169.16;;;19.16;100.00
7309;BME280;3695;53.330;9.876;2022-08-23T02:46:20;127170.19;;;19.16;100.00
7309;BME280;3695;53.330;9.876;2022-08-23T02:48:47;126962.19;;;19.11;100.00
7309;BME280;3695;53.330;9.876;2022-08-23T02:51:15;127041.47;;;19.14;100.00
7309;BME280;3695;53.330;9.876;2022-08-23T02:53:42;126920.69;;;19.11;100.00
7309;BME280;3695;53.330;9.876;2022-08-23T02:56:09;126302.19;;;18.97;100.00
7309;BME280;3695;53.330;9.876;2022-08-23T02:58:36;126340.91;;;18.97;100.00
7309;BME280;3695;53.330;9.876;2022-08-23T03:01:04;126308.41;;;18.96;100.00
7309;BME280;3695;53.330;9.876;2022-08-23T03:03:31;126175.28;;;18.94;100.00
7309;BME280;3695;53.330;9.876;2022-08-23T03:05:57;126656.38;;;19.09;100.00
7309;BME280;3695;53.330;9.876;2022-08-23T03:08:26;125923.88;;;18.87;100.00
7309;BME280;3695;53.330;9.876;2022-08-23T03:10:52;126415.63;;;19.01;100.00
7309;BME280;3695;53.330;9.876;2022-08-23T03:13:19;126031.41;;;18.90;100.00
7309;BME280;3695;53.330;9.876;2022-08-23T03:15:46;126096.44;;;18.92;100.00
7309;BME280;3695;53.330;9.876;2022-08-23T03:18:12;125894.50;;;18.88;100.00
7309;BME280;3695;53.330;9.876;2022-08-23T03:20:40;125189.25;;;18.70;100.00
7309;BME280;3695;53.330;9.876;2022-08-23T03:23:07;125386.13;;;18.77;100.00
7309;BME280;3695;53.330;9.876;2022-08-23T03:25:35;125775.22;;;18.86;100.00
7309;BME280;3695;53.330;9.876;2022-08-23T03:28:03;125938.06;;;18.89;100.00
7309;BME280;3695;53.330;9.876;2022-08-23T03:30:30;126158.66;;;18.94;100.00
7309;BME280;3695;53.330;9.876;2022-08-23T03:32:58;125669.47;;;18.83;100.00
7309;BME280;3695;53.330;9.876;2022-08-23T03:35:25;125497.06;;;18.79;100.00
7309;BME280;3695;53.330;9.876;2022-08-23T03:37:51;125316.34;;;18.74;100.00
7309;BME280;3695;53.330;9.876;2022-08-23T03:40:19;125120.13;;;18.70;100.00
7309;BME280;3695;53.330;9.876;2022-08-23T03:42:48;125013.75;;;18.68;100.00
7309;BME280;3695;53.330;9.876;2022-08-23T03:45:15;124017.34;;;18.47;100.00
7309;BME280;3695;53.330;9.876;2022-08-23T03:47:41;124449.16;;;18.55;100.00
7309;BME280;3695;53.330;9.876;2022-08-23T03:50:08;123786.16;;;18.42;100.00
7309;BME280;3695;53.330;9.876;2022-08-23T03:52:35;124372.69;;;18.60;100.00
7309;BME280;3695;53.330;9.876;2022-08-23T03:55:02;123804.03;;;18.44;100.00
7309;BME280;3695;53.330;9.876;2022-08-23T03:57:29;122625.81;;;18.18;100.00
7309;BME280;3695;53.330;9.876;2022-08-23T03:59:57;122298.38;;;18.13;100.00
7309;BME280;3695;53.330;9.876;2022-08-23T04:02:24;122594.22;;;18.21;100.00
7309;BME280;3695;53.330;9.876;2022-08-23T04:04:51;123207.81;;;18.36;100.00
7309;BME280;3695;53.330;9.876;2022-08-23T04:07:18;122647.44;;;18.20;100.00
7309;BME280;3695;53.330;9.876;2022-08-23T04:09:45;123156.81;;;18.34;100.00
7309;BME280;3695;53.330;9.876;2022-08-23T04:12:11;122710.16;;;18.21;100.00
7309;BME280;3695;53.330;9.876;2022-08-23T04:14:38;121854.13;;;18.02;100.00
7309;BME280;3695;53.330;9.876;2022-08-23T04:17:06;122063.31;;;18.10;100.00
7309;BME280;3695;53.330;9.876;2022-08-23T04:19:32;123005.69;;;18.33;100.00
7309;BME280;3695;53.330;9.876;2022-08-23T04:22:00;123105.34;;;18.34;100.00
7309;BME280;3695;53.330;9.876;2022-08-23T04:24:26;122116.50;;;18.09;100.00
7309;BME280;3695;53.330;9.876;2022-08-23T04:26:53;121919.31;;;18.07;100.00
7309;BME280;3695;53.330;9.876;2022-08-23T04:29:19;121503.03;;;17.97;100.00
7309;BME280;3695;53.330;9.876;2022-08-23T04:31:47;121943.66;;;18.09;100.00
7309;BME280;3695;53.330;9.876;2022-08-23T04:34:15;121034.75;;;17.89;100.00
7309;BME280;3695;53.330;9.876;2022-08-23T04:36:42;120633.63;;;17.80;100.00
7309;BME280;3695;53.330;9.876;2022-08-23T04:39:09;121251.28;;;17.98;100.00
7309;BME280;3695;53.330;9.876;2022-08-23T04:41:36;121538.09;;;18.04;100.00
7309;BME280;3695;53.330;9.876;2022-08-23T04:44:20;121779.84;;;18.09;100.00
7309;BME280;3695;53.330;9.876;2022-08-23T04:46:47;121323.72;;;17.97;100.00
7309;BME280;3695;53.330;9.876;2022-08-23T04:49:16;120321.69;;;17.77;100.00
7309;BME280;3695;53.330;9.876;2022-08-23T04:51:42;120060.19;;;17.73;100.00
7309;BME280;3695;53.330;9.876;2022-08-23T04:54:09;120009.00;;;17.75;100.00
7309;BME280;3695;53.330;9.876;2022-08-23T04:56:36;120217.53;;;17.81;100.00
7309;BME280;3695;53.330;9.876;2022-08-23T04:59:03;120006.44;;;17.76;100.00
7309;BME280;3695;53.330;9.876;2022-08-23T05:01:29;119616.06;;;17.70;100.00
7309;BME280;3695;53.330;9.876;2022-08-23T05:03:56;119300.97;;;17.62;100.00
7309;BME280;3695;53.330;9.876;2022-08-23T05:06:25;119659.75;;;17.74;100.00
7309;BME280;3695;53.330;9.876;2022-08-23T05:08:53;119707.00;;;17.77;100.00
7309;BME280;3695;53.330;9.876;2022-08-23T05:11:19;119637.72;;;17.74;100.00
7309;BME280;3695;53.330;9.876;2022-08-23T05:13:47;119733.38;;;17.75;100.00
7309;BME280;3695;53.330;9.876;2022-08-23T05:16:13;119990.91;;;17.84;100.00
7309;BME280;3695;53.330;9.876;2022-08-23T05:18:40;119595.56;;;17.75;100.00
7309;BME280;3695;53.330;9.876;2022-08-23T05:21:07;119899.53;;;17.81;100.00
7309;BME280;3695;53.330;9.876;2022-08-23T05:23:35;119247.22;;;17.66;100.00
7309;BME280;3695;53.330;9.876;2022-08-23T05:26:01;119679.03;;;17.81;100.00
7309;BME280;3695;53.330;9.876;2022-08-23T05:28:30;119789.66;;;17.84;100.00
7309;BME280;3695;53.330;9.876;2022-08-23T05:30:59;119622.72;;;17.79;100.00
7309;BME280;3695;53.330;9.876;2022-08-23T05:33:28;119780.59;;;17.85;100.00
7309;BME280;3695;53.330;9.876;2022-08-23T05:35:54;119850.69;;;17.87;100.00
7309;BME280;3695;53.330;9.876;2022-08-23T05:38:21;120244.19;;;17.95;100.00
7309;BME280;3695;53.330;9.876;2022-08-23T05:40:50;120545.84;;;18.03;100.00
7309;BME280;3695;53.330;9.876;2022-08-23T05:43:18;120528.31;;;18.02;100.00
7309;BME280;3695;53.330;9.876;2022-08-23T05:45:45;120761.97;;;18.03;100.00
7309;BME280;3695;53.330;9.876;2022-08-23T05:48:12;120683.97;;;18.04;100.00
7309;BME280;3695;53.330;9.876;2022-08-23T05:50:39;121136.13;;;18.15;100.00
7309;BME280;3695;53.330;9.876;2022-08-23T05:53:07;121600.78;;;18.29;100.00
7309;BME280;3695;53.330;9.876;2022-08-23T05:55:35;122060.19;;;18.42;100.00
7309;BME280;3695;53.330;9.876;2022-08-23T05:58:03;121895.56;;;18.37;100.00
7309;BME280;3695;53.330;9.876;2022-08-23T06:00:30;122904.81;;;18.61;100.00
7309;BME280;3695;53.330;9.876;2022-08-23T06:02:57;122330.00;;;18.43;100.00
7309;BME280;3695;53.330;9.876;2022-08-23T06:05:23;122934.50;;;18.62;100.00
7309;BME280;3695;53.330;9.876;2022-08-23T06:07:50;123588.81;;;18.80;100.00
7309;BME280;3695;53.330;9.876;2022-08-23T06:10:16;123957.72;;;18.92;100.00
7309;BME280;3695;53.330;9.876;2022-08-23T06:12:44;125000.91;;;19.18;100.00
7309;BME280;3695;53.330;9.876;2022-08-23T06:15:13;125193.47;;;19.22;100.00
7309;BME280;3695;53.330;9.876;2022-08-23T06:17:39;125933.19;;;19.38;100.00
7309;BME280;3695;53.330;9.876;2022-08-23T06:20:06;125981.28;;;19.39;100.00
7309;BME280;3695;53.330;9.876;2022-08-23T06:22:34;126191.34;;;19.41;100.00
7309;BME280;3695;53.330;9.876;2022-08-23T06:25:00;126232.84;;;19.45;100.00
7309;BME280;3695;53.330;9.876;2022-08-23T06:27:27;126623.66;;;19.55;100.00
7309;BME280;3695;53.330;9.876;2022-08-23T06:29:54;126869.81;;;19.62;100.00
7309;BME280;3695;53.330;9.876;2022-08-23T06:32:22;127031.19;;;19.65;100.00
7309;BME280;3695;53.330;9.876;2022-08-23T06:34:48;127627.16;;;19.85;100.00
7309;BME280;3695;53.330;9.876;2022-08-23T06:37:15;127055.41;;;19.62;100.00
7309;BME280;3695;53.330;9.876;2022-08-23T06:39:41;128055.63;;;19.95;100.00
7309;BME280;3695;53.330;9.876;2022-08-23T06:42:11;128598.84;;;20.12;100.00
7309;BME280;3695;53.330;9.876;2022-08-23T06:44:37;128745.59;;;20.15;100.00
7309;BME280;3695;53.330;9.876;2022-08-23T06:47:05;128607.06;;;20.08;100.00
7309;BME280;3695;53.330;9.876;2022-08-23T06:49:34;128651.44;;;20.08;100.00
7309;BME280;3695;53.330;9.876;2022-08-23T06:52:01;128968.69;;;20.20;100.00
7309;BME280;3695;53.330;9.876;2022-08-23T06:54:30;129543.06;;;20.37;100.00
7309;BME280;3695;53.330;9.876;2022-08-23T06:56:58;129632.28;;;20.38;100.00
7309;BME280;3695;53.330;9.876;2022-08-23T06:59:24;129584.50;;;20.39;100.00
7309;BME280;3695;53.330;9.876;2022-08-23T07:01:53;129912.19;;;20.50;100.00
7309;BME280;3695;53.330;9.876;2022-08-23T07:04:23;130108.00;;;20.52;100.00
7309;BME280;3695;53.330;9.876;2022-08-23T07:06:52;130399.34;;;20.61;100.00
7309;BME280;3695;53.330;9.876;2022-08-23T07:09:18;131038.56;;;20.79;100.00
7309;BME280;3695;53.330;9.876;2022-08-23T07:11:45;131236.75;;;20.82;100.00
7309;BME280;3695;53.330;9.876;2022-08-23T07:14:14;130934.63;;;20.71;100.00
7309;BME280;3695;53.330;9.876;2022-08-23T07:16:44;131627.91;;;20.92;100.00
7309;BME280;3695;53.330;9.876;2022-08-23T07:19:12;132021.09;;;21.08;100.00
7309;BME280;3695;53.330;9.876;2022-08-23T07:21:39;132545.38;;;21.22;100.00
7309;BME280;3695;53.330;9.876;2022-08-23T07:24:08;132908.59;;;21.24;100.00
7309;BME280;3695;53.330;9.876;2022-08-23T07:26:35;132734.28;;;21.15;100.00
7309;BME280;3695;53.330;9.876;2022-08-23T07:29:03;133480.69;;;21.38;100.00
7309;BME280;3695;53.330;9.876;2022-08-23T07:31:32;133393.03;;;21.30;100.00
7309;BME280;3695;53.330;9.876;2022-08-23T07:34:01;133711.00;;;21.41;100.00
7309;BME280;3695;53.330;9.876;2022-08-23T07:36:29;134418.66;;;21.59;100.00
7309;BME280;3695;53.330;9.876;2022-08-23T07:38:56;134598.00;;;21.60;100.00
7309;BME280;3695;53.330;9.876;2022-08-23T07:41:26;134890.28;;;21.67;100.00
7309;BME280;3695;53.330;9.876;2022-08-23T07:43:55;135389.94;;;21.78;100.00
7309;BME280;3695;53.330;9.876;2022-08-23T07:46:22;135610.59;;;21.77;100.00
7309;BME280;3695;53.330;9.876;2022-08-23T07:48:49;135707.56;;;21.78;100.00
7309;BME280;3695;53.330;9.876;2022-08-23T07:51:16;135875.84;;;21.86;100.00
7309;BME280;3695;53.330;9.876;2022-08-23T07:53:44;136667.66;;;22.07;100.00
7309;BME280;3695;53.330;9.876;2022-08-23T07:56:12;136673.19;;;22.04;100.00
7309;BME280;3695;53.330;9.876;2022-08-23T07:58:40;137117.84;;;22.15;100.00
7309;BME280;3695;53.330;9.876;2022-08-23T08:01:08;136784.66;;;22.02;100.00
7309;BME280;3695;53.330;9.876;2022-08-23T08:03:36;137071.47;;;22.10;100.00
7309;BME280;3695;53.330;9.876;2022-08-23T08:06:06;137481.09;;;22.19;100.00
7309;BME280;3695;53.330;9.876;2022-08-23T08:08:32;137103.81;;;22.10;100.00
7309;BME280;3695;53.330;9.876;2022-08-23T08:10:59;137478.94;;;22.23;100.00
7309;BME280;3695;53.330;9.876;2022-08-23T08:13:25;138280.06;;;22.49;100.00
7309;BME280;3695;53.330;9.876;2022-08-23T08:15:53;138248.66;;;22.45;100.00
7309;BME280;3695;53.330;9.876;2022-08-23T08:18:20;138116.72;;;22.39;100.00
7309;BME280;3695;53.330;9.876;2022-08-23T08:20:46;137948.13;;;22.38;100.00
7309;BME280;3695;53.330;9.876;2022-08-23T08:23:13;138728.34;;;22.62;100.00
7309;BME280;3695;53.330;9.876;2022-08-23T08:25:40;138445.47;;;22.53;100.00
7309;BME280;3695;53.330;9.876;2022-08-23T08:28:07;138569.63;;;22.59;100.00
7309;BME280;3695;53.330;9.876;2022-08-23T08:30:33;138770.97;;;22.67;100.00
7309;BME280;3695;53.330;9.876;2022-08-23T08:33:01;139201.84;;;22.82;100.00
7309;BME280;3695;53.330;9.876;2022-08-23T08:35:28;139150.25;;;22.79;100.00
7309;BME280;3695;53.330;9.876;2022-08-23T08:37:54;139450.84;;;22.89;100.00
7309;BME280;3695;53.330;9.876;2022-08-23T08:40:27;139477.03;;;22.87;100.00
7309;BME280;3695;53.330;9.876;2022-08-23T08:43:08;139671.88;;;22.95;100.00
7309;BME280;3695;53.330;9.876;2022-08-23T08:45:48;140315.28;;;23.13;100.00
7309;BME280;3695;53.330;9.876;2022-08-23T08:48:22;140184.41;;;23.04;100.00
7309;BME280;3695;53.330;9.876;2022-08-23T08:50:53;140181.78;;;23.06;100.00
7309;BME280;3695;53.330;9.876;2022-08-23T08:53:24;140372.69;;;23.10;100.00
7309;BME280;3695;53.330;9.876;2022-08-23T08:55:57;140468.06;;;23.15;100.00
7309;BME280;3695;53.330;9.876;2022-08-23T08:58:40;140055.19;;;23.02;100.00
7309;BME280;3695;53.330;9.876;2022-08-23T09:01:09;141141.91;;;23.36;100.00
7309;BME280;3695;53.330;9.876;2022-08-23T09:03:38;141384.03;;;23.42;100.00
7309;BME280;3695;53.330;9.876;2022-08-23T09:06:15;141593.81;;;23.48;100.00
7309;BME280;3695;53.330;9.876;2022-08-23T09:08:54;141814.84;;;23.54;100.00
7309;BME280;3695;53.330;9.876;2022-08-23T09:11:33;141892.31;;;23.56;100.00
7309;BME280;3695;53.330;9.876;2022-08-23T09:14:14;141482.47;;;23.41;100.00
7309;BME280;3695;53.330;9.876;2022-08-23T09:16:49;142160.53;;;23.63;100.00
7309;BME280;3695;53.330;9.876;2022-08-23T09:19:19;141980.94;;;23.52;100.00
7309;BME280;3695;53.330;9.876;2022-08-23T09:21:48;142425.63;;;23.71;100.00
7309;BME280;3695;53.330;9.876;2022-08-23T09:24:19;142771.97;;;23.85;100.00
7309;BME280;3695;53.330;9.876;2022-08-23T09:26:46;142994.72;;;23.95;100.00
7309;BME280;3695;53.330;9.876;2022-08-23T09:29:20;142920.44;;;23.85;100.00
7309;BME280;3695;53.330;9.876;2022-08-23T09:31:50;143152.59;;;23.99;100.00
7309;BME280;3695;53.330;9.876;2022-08-23T09:34:21;143107.72;;;23.93;100.00
7309;BME280;3695;53.330;9.876;2022-08-23T09:36:48;143312.75;;;23.98;100.00
7309;BME280;3695;53.330;9.876;2022-08-23T09:39:27;143938.66;;;24.21;100.00
7309;BME280;3695;53.330;9.876;2022-08-23T09:41:55;144171.94;;;24.26;100.00
7309;BME280;3695;53.330;9.876;2022-08-23T09:44:33;143897.78;;;24.12;100.00
7309;BME280;3695;53.330;9.876;2022-08-23T09:47:07;143702.81;;;24.03;100.00
7309;BME280;3695;53.330;9.876;2022-08-23T09:49:35;144088.16;;;24.19;100.00
7309;BME280;3695;53.330;9.876;2022-08-23T09:52:12;144676.25;;;24.40;100.00
7309;BME280;3695;53.330;9.876;2022-08-23T09:54:42;144784.78;;;24.42;100.00
7309;BME280;3695;53.330;9.876;2022-08-23T09:57:09;145280.03;;;24.62;100.00
7309;BME280;3695;53.330;9.876;2022-08-23T09:59:41;145030.25;;;24.49;100.00
7309;BME280;3695;53.330;9.876;2022-08-23T10:02:14;145282.56;;;24.56;100.00
7309;BME280;3695;53.330;9.876;2022-08-23T10:04:46;145560.63;;;24.66;100.00
7309;BME280;3695;53.330;9.876;2022-08-23T10:07:23;145574.22;;;24.67;100.00
7309;BME280;3695;53.330;9.876;2022-08-23T10:09:52;145650.78;;;24.68;100.00
7309;BME280;3695;53.330;9.876;2022-08-23T10:12:18;146307.84;;;24.89;100.00
7309;BME280;3695;53.330;9.876;2022-08-23T10:14:45;146200.44;;;24.80;100.00
7309;BME280;3695;53.330;9.876;2022-08-23T10:17:21;146206.88;;;24.78;100.00
7309;BME280;3695;53.330;9.876;2022-08-23T10:20:09;146494.81;;;24.88;100.00
7309;BME280;3695;53.330;9.876;2022-08-23T10:22:42;146214.09;;;24.77;100.00
7309;BME280;3695;53.330;9.876;2022-08-23T10:25:14;146961.88;;;25.00;100.00
7309;BME280;3695;53.330;9.876;2022-08-23T10:27:47;146494.47;;;24.82;100.00
7309;BME280;3695;53.330;9.876;2022-08-23T10:30:48;146767.25;;;24.88;100.00
7309;BME280;3695;53.330;9.876;2022-08-23T10:33:23;146606.84;;;24.78;100.00
7309;BME280;3695;53.330;9.876;2022-08-23T10:36:00;147572.13;;;25.17;100.00
7309;BME280;3695;53.330;9.876;2022-08-23T10:38:37;147135.25;;;25.02;100.00
7309;BME280;3695;53.330;9.876;2022-08-23T10:41:13;147216.38;;;25.10;100.00
7309;BME280;3695;53.330;9.876;2022-08-23T10:43:54;147178.19;;;25.04;100.00
7309;BME280;3695;53.330;9.876;2022-08-23T10:46:28;147796.28;;;25.30;100.00
7309;BME280;3695;53.330;9.876;2022-08-23T10:48:57;147571.72;;;25.18;100.00
7309;BME280;3695;53.330;9.876;2022-08-23T10:51:28;147909.16;;;25.32;100.00
7309;BME280;3695;53.330;9.876;2022-08-23T10:53:57;148447.75;;;25.51;100.00
7309;BME280;3695;53.330;9.876;2022-08-23T10:56:26;148783.16;;;25.60;100.00
7309;BME280;3695;53.330;9.876;2022-08-23T10:58:57;148719.59;;;25.57;100.00
7309;BME280;3695;53.330;9.876;2022-08-23T11:01:28;148526.06;;;25.48;100.00
7309;BME280;3695;53.330;9.876;2022-08-23T11:04:01;149146.16;;;25.76;100.00
7309;BME280;3695;53.330;9.876;2022-08-23T11:06:50;148627.00;;;25.53;100.00
7309;BME280;3695;53.330;9.876;2022-08-23T11:09:51;149082.00;;;25.66;100.00
7309;BME280;3695;53.330;9.876;2022-08-23T11:12:24;149073.56;;;25.66;100.00
7309;BME280;3695;53.330;9.876;2022-08-23T11:15:08;149293.66;;;25.72;100.00
7309;BME280;3695;53.330;9.876;2022-08-23T11:17:42;149341.72;;;25.80;100.00
7309;BME280;3695;53.330;9.876;2022-08-23T11:23:36;149602.50;;;25.86;100.00
7309;BME280;3695;53.330;9.876;2022-08-23T11:26:04;150754.03;;;26.31;100.00
7309;BME280;3695;53.330;9.876;2022-08-23T11:28:39;150084.03;;;25.98;100.00
7309;BME280;3695;53.330;9.876;2022-08-23T11:31:20;149646.22;;;25.82;100.00
7309;BME280;3695;53.330;9.876;2022-08-23T11:33:50;149485.63;;;25.79;100.00
7309;BME280;3695;53.330;9.876;2022-08-23T11:36:20;150609.63;;;26.25;100.00
7309;BME280;3695;53.330;9.876;2022-08-23T11:39:05;150896.75;;;26.34;100.00
7309;BME280;3695;53.330;9.876;2022-08-23T11:41:34;151179.00;;;26.42;100.00
7309;BME280;3695;53.330;9.876;2022-08-23T11:44:22;151281.94;;;26.46;100.00
7309;BME280;3695;53.330;9.876;2022-08-23T11:46:57;150750.00;;;26.23;100.00
7309;BME280;3695;53.330;9.876;2022-08-23T11:49:51;151438.69;;;26.53;100.00
7309;BME280;3695;53.330;9.876;2022-08-23T11:52:45;151128.97;;;26.40;100.00
7309;BME280;3695;53.330;9.876;2022-08-23T11:55:22;151289.50;;;26.44;100.00
7309;BME280;3695;53.330;9.876;2022-08-23T11:58:04;151245.97;;;26.44;100.00
7309;BME280;3695;53.330;9.876;2022-08-23T12:00:52;151383.69;;;26.49;100.00
7309;BME280;3695;53.330;9.876;2022-08-23T12:03:24;152100.91;;;26.76;100.00
7309;BME280;3695;53.330;9.876;2022-08-23T12:06:09;151911.44;;;26.69;100.00
7309;BME280;3695;53.330;9.876;2022-08-23T12:08:54;153073.56;;;27.15;100.00
7309;BME280;3695;53.330;9.876;2022-08-23T12:12:09;152841.28;;;27.00;100.00
7309;BME280;3695;53.330;9.876;2022-08-23T12:14:48;153289.75;;;27.19;100.00
7309;BME280;3695;53.330;9.876;2022-08-23T12:20:25;153442.88;;;27.17;100.00
7309;BME280;3695;53.330;9.876;2022-08-23T12:23:00;152885.16;;;26.94;100.00
7309;BME280;3695;53.330;9.876;2022-08-23T12:25:27;154096.41;;;27.41;100.00
7309;BME280;3695;53.330;9.876;2022-08-23T12:28:02;154117.44;;;27.42;100.00
7309;BME280;3695;53.330;9.876;2022-08-23T12:30:36;154463.94;;;27.50;100.00
7309;BME280;3695;53.330;9.876;2022-08-23T12:33:14;153923.38;;;27.29;100.00
7309;BME280;3695;53.330;9.876;2022-08-23T12:35:49;154135.66;;;27.38;100.00
7309;BME280;3695;53.330;9.876;2022-08-23T12:38:23;154510.13;;;27.52;100.00
7309;BME280;3695;53.330;9.876;2022-08-23T12:40:57;153932.19;;;27.28;100.00
7309;BME280;3695;53.330;9.876;2022-08-23T12:43:28;154195.94;;;27.39;100.00
7309;BME280;3695;53.330;9.876;2022-08-23T12:45:57;154383.84;;;27.49;100.00
7309;BME280;3695;53.330;9.876;2022-08-23T12:48:30;153879.75;;;27.29;100.00
7309;BME280;3695;53.330;9.876;2022-08-23T12:50:59;154565.75;;;27.55;100.00
7309;BME280;3695;53.330;9.876;2022-08-23T12:53:29;154136.59;;;27.39;100.00
7309;BME280;3695;53.330;9.876;2022-08-23T12:56:00;154048.34;;;27.37;100.00
7309;BME280;3695;53.330;9.876;2022-08-23T12:58:30;154873.84;;;27.70;100.00
7309;BME280;3695;53.330;9.876;2022-08-23T13:00:59;155664.03;;;28.01;100.00
7309;BME280;3695;53.330;9.876;2022-08-23T13:03:30;155358.25;;;27.92;100.00
7309;BME280;3695;53.330;9.876;2022-08-23T13:06:01;155306.31;;;27.90;100.00
7309;BME280;3695;53.330;9.876;2022-08-23T13:08:33;156429.38;;;28.33;100.00
7309;BME280;3695;53.330;9.876;2022-08-23T13:11:03;155785.97;;;28.10;100.00
7309;BME280;3695;53.330;9.876;2022-08-23T13:13:32;156333.91;;;28.30;100.00
7309;BME280;3695;53.330;9.876;2022-08-23T13:16:01;156676.59;;;28.45;100.00
7309;BME280;3695;53.330;9.876;2022-08-23T13:18:47;156661.16;;;28.45;100.00
7309;BME280;3695;53.330;9.876;2022-08-23T13:21:28;156252.09;;;28.29;100.00
7309;BME280;3695;53.330;9.876;2022-08-23T13:23:57;156741.91;;;28.50;100.00